Hauptseite
METAR-TAF:

METAR-TAF

Flughäfen :

RAF Marham

Marham, England

Breite: 52-39N, Länge: 000-34E, Höhe: 23 m

Beobachtung

Neuester Wetterbericht von vor 47 Minuten, um 17:50 UTC
Wind 14 kt aus Süd
Temperatur 10°C
Luftfeuchtigkeit 82%
Luftdruck 1010 hPa
Sichtweite 10 km oder mehr
keine Wolken unter 1500 m und keine Kumulonimbus oder Gewitterwolken

METAR: EGYM 121750Z 18014KT CAVOK 10/07 Q1010 BLU

Zeit: 18:37 (18:37 UTC)

Prognose

Neuester Wetterbericht von vor 2 Stunden und 0 Minuten, um 16:37 UTC
Gültige Prognose vom 12 um 18 UTC bis 13 um 03 UTC
Wind 12 kt aus Süd
Sichtweite 10 km oder mehr
Aufgelockert bewölkt in der Höhe von 3000 ft
Zeitweise
vom 12 um 18 UTC bis 12 um 21 UTC
Wind 15 kt aus Süd/Südwest, Böen bis zu 25 kt

TAF: EGYM 121637Z 1218/1303 19012KT 9999 SCT030 TEMPO 1218/1221 20015G25KT

Wetterbeobachtungen und Prognosen von mehr als 4000 Flughäfen (METAR und TAF Bericht).

Die verfügbaren Stationen werden durch gelbe und rote Markierungen auf der Karte dargestellt.

Führen Sie die Maus auf sie, um den Namen der Station zu sehen.

Darauf klicken, um die Beobachtung von Wetterbeobachtungen und Prognosen zu sehen.

Um die Karte zu ändern : klicken Sie auf den grünen Tasten mit einem schwarzen Kreuz Zum Vergrößern, auf den grünen Button mit einem Gedankenstrich zu verkleinern, oder auf die grünen Pfeile für benachbarte Karten.


METAR-TAF: